Time;durP1;ratioP1;P1;durP2;ratioP2;P2;SDS_P1;SDS_P2;PMS_P1;PMS_P2;Temp;Humidity;BMP_temperature;BMP_pressure;BME280_temperature;BME280_humidity;BME280_pressure;Samples;Min_cycle;Max_cycle;Signal;HPM_P1;HPM_P2
2022/06/02 00:00:46;;;;;;;;;4.00;4.00;;;;;20.22;45.92;98440.56;5020033;27;108840;-65
2022/06/02 00:03:25;;;;;;;;;4.33;4.33;;;;;20.21;45.54;98458.16;4989334;27;108659;-64
2022/06/02 00:06:11;;;;;;;;;6.33;6.33;;;;;20.21;45.92;98465.56;4987555;27;102290;-65
2022/06/02 00:08:41;;;;;;;;;3.67;3.67;;;;;20.20;45.75;98467.47;5010585;27;102522;-65
2022/06/02 00:11:22;;;;;;;;;3.67;3.67;;;;;20.21;45.82;98479.28;4996024;27;110460;-65
2022/06/02 00:14:10;;;;;;;;;3.67;3.67;;;;;20.20;45.71;98480.38;5006582;27;102183;-65
2022/06/02 00:16:56;;;;;;;;;4.67;4.67;;;;;20.18;45.80;98477.88;5008075;27;102427;-65
2022/06/02 00:19:35;;;;;;;;;4.67;3.67;;;;;20.19;46.00;98487.78;4991913;27;102568;-65
2022/06/02 00:22:09;;;;;;;;;3.67;3.67;;;;;20.20;45.71;98491.34;5005595;27;104411;-65
2022/06/02 00:24:45;;;;;;;;;4.67;4.33;;;;;20.19;45.82;98509.75;4998311;27;102335;-65
2022/06/02 00:27:12;;;;;;;;;5.00;4.67;;;;;20.19;45.69;98504.25;5023240;27;102209;-65
2022/06/02 00:29:51;;;;;;;;;5.00;5.00;;;;;20.19;45.72;98509.75;5017314;27;102188;-65
2022/06/02 00:32:24;;;;;;;;;2.67;2.67;;;;;20.19;45.67;98522.63;5000040;27;109089;-65
2022/06/02 00:34:57;;;;;;;;;5.00;4.67;;;;;20.19;45.77;98528.13;5006170;27;102027;-65
2022/06/02 00:37:49;;;;;;;;;5.33;5.00;;;;;20.18;46.02;98523.72;5002615;27;103770;-65
2022/06/02 00:40:17;;;;;;;;;5.00;5.00;;;;;20.19;46.01;98528.13;5005407;27;102372;-65
2022/06/02 00:43:05;;;;;;;;;4.67;4.67;;;;;20.18;45.94;98520.97;5023223;27;104140;-65
2022/06/02 00:45:32;;;;;;;;;6.67;5.00;;;;;20.17;45.66;98516.59;4999071;27;102554;-65
2022/06/02 00:48:09;;;;;;;;;6.00;5.67;;;;;20.15;45.63;98514.13;5007770;27;102375;-65
2022/06/02 00:50:42;;;;;;;;;5.33;5.00;;;;;20.17;45.78;98505.63;5003202;27;102815;-65
2022/06/02 00:53:34;;;;;;;;;4.67;4.33;;;;;20.16;46.09;98506.72;5011406;27;106542;-65
2022/06/02 00:59:29;;;;;;;;;4.00;4.00;;;;;20.15;46.07;98505.88;4988253;27;105468;-65
2022/06/02 01:01:56;;;;;;;;;5.67;4.67;;;;;20.14;46.07;98506.97;4994753;27;103546;-65
2022/06/02 01:04:23;;;;;;;;;4.33;4.33;;;;;20.15;45.69;98511.38;4970782;27;104061;-65
2022/06/02 01:07:15;;;;;;;;;4.00;4.00;;;;;20.17;45.61;98505.63;4975594;27;102299;-65
2022/06/02 01:09:51;;;;;;;;;7.00;5.33;;;;;20.17;46.13;98502.88;5001231;27;104991;-65
2022/06/02 01:12:52;;;;;;;;;3.67;3.67;;;;;20.15;45.91;98508.63;4997954;27;104199;-64
2022/06/02 01:15:38;;;;;;;;;4.00;4.00;;;;;20.16;45.79;98498.47;4964395;27;108957;-65
2022/06/02 01:18:23;;;;;;;;;4.33;4.33;;;;;20.16;46.02;98501.22;5001778;27;102114;-66
2022/06/02 01:21:09;;;;;;;;;4.33;4.33;;;;;20.14;46.02;98501.47;4996117;27;102094;-65
2022/06/02 01:23:52;;;;;;;;;4.33;3.67;;;;;20.14;45.82;98495.16;5016345;27;102419;-65
2022/06/02 01:26:50;;;;;;;;;4.67;3.67;;;;;20.12;46.22;98498.19;5024702;27;108779;-64
2022/06/02 01:29:36;;;;;;;;;4.33;4.33;;;;;20.13;46.16;98493.53;5008292;27;102498;-65
2022/06/02 01:32:08;;;;;;;;;4.67;4.67;;;;;20.13;46.02;98499.81;4995253;27;102074;-65
2022/06/02 01:34:48;;;;;;;;;4.33;4.33;;;;;20.13;46.12;98499.81;5015233;27;102748;-65
2022/06/02 01:37:41;;;;;;;;;3.67;3.67;;;;;20.13;45.95;98501.75;5015694;27;111126;-65
2022/06/02 01:40:12;;;;;;;;;5.00;4.67;;;;;20.14;45.87;98508.88;4994964;27;102397;-66
2022/06/02 01:42:51;;;;;;;;;4.00;4.00;;;;;20.12;45.72;98509.16;5005768;27;102267;-65
2022/06/02 01:45:24;;;;;;;;;4.00;4.00;;;;;20.13;45.87;98504.50;5012519;27;102361;-65
2022/06/02 01:48:41;;;;;;;;;5.00;5.00;;;;;20.14;46.05;98506.97;5006328;27;108941;-65
2022/06/02 01:51:37;;;;;;;;;4.00;4.00;;;;;20.13;45.69;98505.31;4978822;27;102302;-65
2022/06/02 01:54:24;;;;;;;;;3.67;3.67;;;;;20.12;45.86;98506.41;5016360;27;102445;-65
2022/06/02 01:57:03;;;;;;;;;4.33;3.67;;;;;20.12;45.86;98509.16;4994165;27;102369;-65
2022/06/02 01:59:55;;;;;;;;;3.67;3.67;;;;;20.12;45.98;98513.81;4998373;27;108881;-65
2022/06/02 02:02:39;;;;;;;;;4.33;4.33;;;;;20.12;46.05;98502.84;5012486;27;102331;-65
2022/06/02 02:05:23;;;;;;;;;4.67;4.00;;;;;20.11;46.24;98498.44;5022915;27;102517;-65
2022/06/02 02:07:58;;;;;;;;;4.33;4.33;;;;;20.12;45.83;98498.19;5008660;27;102209;-65
2022/06/02 02:10:40;;;;;;;;;3.33;3.33;;;;;20.11;45.96;98496.53;5016281;27;108912;-65
2022/06/02 02:13:21;;;;;;;;;4.00;3.67;;;;;20.12;45.97;98489.13;5018188;27;102244;-65
2022/06/02 02:15:49;;;;;;;;;4.67;4.67;;;;;20.11;45.90;98495.69;5018877;27;104927;-65
2022/06/02 02:18:45;;;;;;;;;3.67;3.67;;;;;20.11;46.15;98490.19;5006805;27;102751;-66
2022/06/02 02:21:37;;;;;;;;;3.67;3.67;;;;;20.11;46.06;98496.53;5017838;27;109551;-65
2022/06/02 02:24:13;;;;;;;;;3.00;3.00;;;;;20.11;45.74;98491.03;4996998;27;103980;-65
2022/06/02 02:27:08;;;;;;;;;2.67;2.67;;;;;20.11;45.93;98480.03;5002423;27;102178;-65
2022/06/02 02:29:56;;;;;;;;;4.33;3.67;;;;;20.09;45.88;98475.91;5014540;27;105181;-65
2022/06/02 02:33:01;;;;;;;;;4.00;4.00;;;;;20.10;46.00;98478.38;5011403;27;109081;-65
2022/06/02 02:35:39;;;;;;;;;4.00;3.00;;;;;20.09;46.10;98475.91;5010393;27;102184;-65
2022/06/02 02:38:30;;;;;;;;;4.00;4.00;;;;;20.09;45.92;98482.22;5014058;27;102009;-65
2022/06/02 02:41:00;;;;;;;;;3.67;3.67;;;;;20.11;46.03;98480.03;5000128;27;102502;-65
2022/06/02 02:43:39;;;;;;;;;3.33;2.67;;;;;20.09;46.04;98487.72;5008438;27;104030;-65
2022/06/02 02:46:16;;;;;;;;;3.00;3.00;;;;;20.10;46.09;98483.88;4995087;28;102355;-66
2022/06/02 02:49:05;;;;;;;;;3.67;3.67;;;;;20.11;46.07;98484.72;5019337;27;103530;-65
2022/06/02 02:51:47;;;;;;;;;3.00;3.00;;;;;20.12;45.91;98472.63;5025445;27;102598;-65
2022/06/02 02:54:17;;;;;;;;;4.00;4.00;;;;;20.10;46.09;98467.41;5019142;27;104046;-66
2022/06/02 02:56:56;;;;;;;;;4.33;4.33;;;;;20.10;45.87;98455.59;5007358;27;102035;-65
2022/06/02 02:59:35;;;;;;;;;4.67;4.00;;;;;20.09;45.74;98446.53;5012268;27;102156;-65
2022/06/02 03:02:29;;;;;;;;;3.33;3.00;;;;;20.08;46.17;98452.31;4999716;27;102581;-65
2022/06/02 03:05:07;;;;;;;;;3.67;3.67;;;;;20.09;45.97;98448.44;5006112;27;109150;-65
2022/06/02 03:07:34;;;;;;;;;5.00;5.00;;;;;20.07;46.19;98446.00;4996515;27;102079;-65
2022/06/02 03:10:04;;;;;;;;;3.67;3.67;;;;;20.07;46.26;98454.22;5026764;27;102496;-66
2022/06/02 03:12:52;;;;;;;;;3.00;2.67;;;;;20.07;46.12;98451.47;4998017;28;102302;-66
2022/06/02 03:15:25;;;;;;;;;3.67;3.67;;;;;20.06;46.11;98449.81;5009493;27;104226;-65
2022/06/02 03:18:28;;;;;;;;;3.00;3.00;;;;;20.07;46.07;98462.47;4994097;28;104382;-65
2022/06/02 03:20:59;;;;;;;;;4.00;4.00;;;;;20.07;46.10;98467.94;4963414;27;102254;-65
2022/06/02 03:23:57;;;;;;;;;4.00;3.00;;;;;20.05;46.02;98470.94;5009055;27;102610;-65
2022/06/02 03:26:42;;;;;;;;;2.67;2.67;;;;;20.07;45.92;98480.84;5007247;27;109059;-65
2022/06/02 03:29:23;;;;;;;;;4.33;3.67;;;;;20.06;46.30;98482.75;5019144;27;102103;-65
2022/06/02 03:32:14;;;;;;;;;4.00;4.00;;;;;20.05;46.11;98486.59;5000081;27;109684;-65
2022/06/02 03:35:06;;;;;;;;;3.67;3.33;;;;;20.03;46.31;98494.28;5018589;27;102717;-65
2022/06/02 03:37:45;;;;;;;;;4.33;4.00;;;;;20.04;45.94;98484.94;5027410;27;108974;-65
2022/06/02 03:40:24;;;;;;;;;2.67;2.67;;;;;20.05;46.27;98486.59;5003274;27;102036;-66
2022/06/02 03:43:09;;;;;;;;;3.00;3.00;;;;;20.04;45.96;98477.53;5022101;27;102167;-65
2022/06/02 03:46:04;;;;;;;;;2.67;2.67;;;;;20.05;46.02;98476.44;5012046;27;102569;-65
2022/06/02 03:48:59;;;;;;;;;2.67;2.67;;;;;20.06;46.39;98482.75;4998970;27;108917;-65
2022/06/02 03:51:47;;;;;;;;;3.67;3.67;;;;;20.04;46.00;98483.00;5000113;27;104413;-65
2022/06/02 03:54:51;;;;;;;;;2.67;2.33;;;;;20.05;46.18;98489.34;4989583;27;102614;-65
2022/06/02 03:57:56;;;;;;;;;3.00;3.00;;;;;20.06;45.93;98496.47;5017342;27;102472;-65
2022/06/02 04:00:31;;;;;;;;;4.00;3.00;;;;;20.05;46.25;98486.59;5016090;27;108868;-65
2022/06/02 04:03:02;;;;;;;;;2.67;2.67;;;;;20.04;46.18;98495.91;5000146;27;102587;-65
2022/06/02 04:05:49;;;;;;;;;3.00;3.00;;;;;20.04;45.94;98498.66;5008914;27;102216;-65
2022/06/02 04:08:29;;;;;;;;;3.00;3.00;;;;;20.01;46.07;98502.75;4993185;27;104537;-65
2022/06/02 04:11:16;;;;;;;;;3.33;3.00;;;;;20.01;46.08;98497.28;5002467;27;108875;-65
2022/06/02 04:14:07;;;;;;;;;3.00;3.00;;;;;20.02;46.22;98503.59;5010713;27;102348;-65
2022/06/02 04:16:34;;;;;;;;;2.67;2.67;;;;;20.03;46.20;98494.28;4995685;27;102202;-65
2022/06/02 04:20:34;;;;;;;;;3.67;2.67;;;;;20.03;46.32;98488.78;5007999;27;102286;-65
2022/06/02 04:22:06;;;;;;;;;3.67;3.67;;;;;20.03;46.23;98497.03;5014334;27;108992;-66
2022/06/02 04:24:58;;;;;;;;;3.67;3.00;;;;;20.04;46.15;98506.88;5000432;27;102173;-66
2022/06/02 04:27:32;;;;;;;;;2.67;2.67;;;;;20.05;46.31;98497.56;5005438;27;102175;-66
2022/06/02 04:30:22;;;;;;;;;2.67;2.67;;;;;20.04;46.08;98502.22;4996769;27;103165;-65
2022/06/02 04:33:23;;;;;;;;;4.00;3.00;;;;;20.04;46.18;98507.72;5002998;27;104227;-65
2022/06/02 04:36:26;;;;;;;;;4.00;4.00;;;;;20.01;46.48;98519.22;5010823;27;103891;-65
2022/06/02 04:39:48;;;;;;;;;4.00;4.00;;;;;20.02;46.51;98522.81;5010042;27;102514;-65
2022/06/02 04:43:00;;;;;;;;;3.00;3.00;;;;;20.02;46.37;98520.06;4948847;28;102418;-66
2022/06/02 04:45:48;;;;;;;;;4.67;4.67;;;;;20.04;46.73;98529.69;5004284;27;108901;-65
2022/06/02 04:48:45;;;;;;;;;2.67;2.33;;;;;20.04;46.27;98531.59;5014198;27;102167;-65
2022/06/02 04:51:24;;;;;;;;;2.67;2.67;;;;;20.04;46.19;98526.94;5007056;27;102223;-65
2022/06/02 04:54:27;;;;;;;;;2.67;2.67;;;;;20.05;46.35;98525.00;5025219;27;102218;-66
2022/06/02 04:57:23;;;;;;;;;3.00;3.00;;;;;20.05;46.20;98523.09;5025760;27;108882;-65
2022/06/02 05:00:09;;;;;;;;;3.33;2.67;;;;;20.05;46.21;98520.34;4998661;27;102846;-66
2022/06/02 05:03:00;;;;;;;;;2.00;2.00;;;;;20.04;46.19;98517.88;5027104;27;102143;-65
2022/06/02 05:05:48;;;;;;;;;4.00;3.33;;;;;20.04;46.39;98518.69;5018920;27;102343;-65
2022/06/02 05:08:34;;;;;;;;;5.00;3.00;;;;;20.04;46.47;98523.34;5012966;27;104420;-65
2022/06/02 05:11:24;;;;;;;;;3.00;3.00;;;;;20.05;46.31;98525.00;5010398;27;102522;-65
2022/06/02 05:14:17;;;;;;;;;2.00;2.00;;;;;20.05;46.46;98530.50;5020405;27;103434;-64
2022/06/02 05:17:18;;;;;;;;;3.00;3.00;;;;;20.04;46.48;98531.59;5007191;27;102433;-65
2022/06/02 05:19:45;;;;;;;;;3.67;3.67;;;;;20.04;46.32;98540.66;5007690;27;109554;-65
2022/06/02 05:22:31;;;;;;;;;3.00;3.00;;;;;20.05;46.56;98541.50;5019173;27;101980;-65
2022/06/02 05:25:01;;;;;;;;;3.33;3.33;;;;;20.05;46.17;98536.81;4994184;27;102224;-65
2022/06/02 05:27:31;;;;;;;;;3.67;3.33;;;;;20.06;46.56;98540.41;5013446;27;102533;-65
2022/06/02 05:30:24;;;;;;;;;3.67;2.67;;;;;20.06;46.35;98540.41;5015556;27;104039;-65
2022/06/02 05:33:15;;;;;;;;;3.33;3.33;;;;;20.05;46.36;98536.81;5021910;27;102136;-66
2022/06/02 05:35:45;;;;;;;;;3.33;3.33;;;;;20.05;46.19;98538.75;5015321;27;102193;-66
2022/06/02 05:38:20;;;;;;;;;2.67;2.67;;;;;20.06;46.29;98543.16;5016959;27;102304;-65
2022/06/02 05:41:08;;;;;;;;;2.67;2.67;;;;;20.05;46.35;98542.31;5006455;27;104125;-65
2022/06/02 05:44:09;;;;;;;;;2.33;2.33;;;;;20.05;46.60;98547.81;5006855;27;102112;-65
2022/06/02 05:46:58;;;;;;;;;2.67;2.67;;;;;20.05;46.36;98546.97;5015292;27;102222;-65
2022/06/02 05:49:33;;;;;;;;;2.00;2.00;;;;;20.07;46.56;98552.22;5005476;27;103154;-66
2022/06/02 05:52:22;;;;;;;;;4.00;4.00;;;;;20.06;46.32;98554.13;5017560;27;108956;-65
2022/06/02 05:55:16;;;;;;;;;2.33;2.33;;;;;20.08;46.63;98557.44;5024593;27;102120;-66
2022/06/02 05:57:55;;;;;;;;;3.00;2.33;;;;;20.07;46.65;98555.78;4996086;27;102411;-65
2022/06/02 06:00:47;;;;;;;;;2.00;2.00;;;;;20.08;46.72;98548.38;5021332;27;102682;-65
2022/06/02 06:03:34;;;;;;;;;3.00;3.00;;;;;20.07;46.55;98550.31;5007353;27;109015;-65
2022/06/02 06:06:29;;;;;;;;;2.67;2.67;;;;;20.07;46.43;98555.78;5011696;27;102389;-65
2022/06/02 06:09:04;;;;;;;;;3.00;3.00;;;;;20.07;46.30;98561.28;5006996;27;102615;-66
2022/06/02 06:11:31;;;;;;;;;4.33;3.00;;;;;20.07;46.21;98563.19;5009067;27;102239;-65
2022/06/02 06:14:14;;;;;;;;;4.33;3.33;;;;;20.07;46.63;98566.78;5014514;27;104299;-65
2022/06/02 06:17:02;;;;;;;;;3.33;3.33;;;;;20.07;46.33;98565.94;4999314;27;103020;-65
2022/06/02 06:19:44;;;;;;;;;2.00;2.00;;;;;20.07;46.38;98571.44;5010049;27;102298;-65
2022/06/02 06:22:42;;;;;;;;;2.67;2.67;;;;;20.08;46.32;98571.19;5011197;27;102319;-65
2022/06/02 06:25:42;;;;;;;;;2.67;2.67;;;;;20.09;46.45;98578.28;5009173;27;109005;-65
2022/06/02 06:28:23;;;;;;;;;3.00;3.00;;;;;20.09;46.27;98583.78;5030836;27;102133;-65
2022/06/02 06:31:06;;;;;;;;;3.00;3.00;;;;;20.09;46.32;98583.78;5005969;27;102237;-66
2022/06/02 06:33:51;;;;;;;;;3.00;3.00;;;;;20.11;46.34;98600.00;4998469;27;102584;-65
2022/06/02 06:36:38;;;;;;;;;4.00;2.67;;;;;20.11;46.54;98600.00;5007377;27;104053;-65
2022/06/02 06:39:26;;;;;;;;;2.67;2.67;;;;;20.10;46.18;98592.84;5009784;27;102404;-65
2022/06/02 06:42:05;;;;;;;;;2.67;2.67;;;;;20.10;46.54;98601.09;5021511;27;102589;-65
2022/06/02 06:44:44;;;;;;;;;1.67;1.67;;;;;20.10;46.35;98599.19;5015787;27;102136;-65
2022/06/02 06:47:22;;;;;;;;;3.67;3.67;;;;;20.12;46.69;98604.41;5022857;27;104019;-65
2022/06/02 06:50:16;;;;;;;;;2.00;2.00;;;;;20.11;46.16;98620.06;5006125;27;102108;-66
2022/06/02 06:53:09;;;;;;;;;2.33;2.33;;;;;20.11;46.80;98617.31;5004465;27;102085;-66
2022/06/02 06:55:39;;;;;;;;;2.00;2.00;;;;;20.12;46.18;98615.41;4999570;27;102294;-66
2022/06/02 06:58:34;;;;;;;;;4.00;3.00;;;;;20.11;46.24;98617.31;5017235;27;104086;-65
2022/06/02 07:01:39;;;;;;;;;1.67;1.67;;;;;20.14;46.28;98619.53;5009044;27;102325;-66
2022/06/02 07:04:25;;;;;;;;;2.00;2.00;;;;;20.13;46.47;98622.56;5018476;27;102573;-65
2022/06/02 07:06:57;;;;;;;;;2.67;2.67;;;;;20.15;46.42;98617.59;5017196;27;102481;-66
2022/06/02 07:09:46;;;;;;;;;2.67;2.67;;;;;20.15;46.19;98623.09;5012934;27;109089;-66
2022/06/02 07:15:20;;;;;;;;;2.67;2.67;;;;;20.14;46.28;98630.50;5006907;27;102171;-65
2022/06/02 07:17:54;;;;;;;;;2.67;2.67;;;;;20.15;46.40;98623.09;5007158;27;102567;-65
2022/06/02 07:21:02;;;;;;;;;3.33;3.33;;;;;20.16;46.05;98631.09;5005725;27;108778;-66
2022/06/02 07:23:53;;;;;;;;;2.67;2.67;;;;;20.17;46.36;98637.41;4999606;27;102435;-65
2022/06/02 07:26:57;;;;;;;;;1.67;1.67;;;;;20.18;46.20;98645.38;5014331;27;102194;-66
2022/06/02 07:30:03;;;;;;;;;2.33;2.00;;;;;20.19;46.67;98643.44;5020345;27;102166;-65
2022/06/02 07:33:07;;;;;;;;;3.00;2.33;;;;;20.20;46.08;98648.69;5003854;27;108805;-65
2022/06/02 07:35:52;;;;;;;;;1.67;1.67;;;;;20.21;46.14;98660.50;5010098;27;102301;-65
2022/06/02 07:38:43;;;;;;;;;1.67;1.67;;;;;20.20;46.02;98659.66;5005450;27;102171;-66
2022/06/02 07:41:51;;;;;;;;;2.00;2.00;;;;;20.20;46.17;98665.16;5008842;27;102334;-65
2022/06/02 07:44:30;;;;;;;;;2.67;2.00;;;;;20.21;46.14;98675.06;4940744;28;109105;-66
2022/06/02 07:46:57;;;;;;;;;3.00;2.00;;;;;20.20;46.10;98680.81;4996838;27;102026;-66
2022/06/02 07:49:45;;;;;;;;;3.67;3.00;;;;;20.20;46.03;98689.03;4996042;27;105041;-66
2022/06/02 07:52:41;;;;;;;;;2.67;2.67;;;;;20.19;46.34;98685.47;5000664;28;102163;-66
2022/06/02 07:55:14;;;;;;;;;3.33;3.33;;;;;20.20;46.22;98687.13;5007922;27;108783;-65
2022/06/02 07:58:23;;;;;;;;;2.33;2.33;;;;;20.20;45.94;98695.38;5014258;27;102197;-66
2022/06/02 08:00:53;;;;;;;;;1.67;1.67;;;;;20.21;46.35;98698.94;5011327;27;102005;-66
2022/06/02 08:03:52;;;;;;;;;3.00;1.67;;;;;20.21;46.17;98699.78;5013028;27;104482;-66
2022/06/02 08:06:25;;;;;;;;;2.67;2.67;;;;;20.23;46.05;98710.47;5005568;27;108939;-66
2022/06/02 08:09:27;;;;;;;;;2.67;2.67;;;;;20.24;46.02;98707.47;5026786;27;102670;-66
2022/06/02 08:12:00;;;;;;;;;1.67;1.67;;;;;20.24;46.20;98709.41;5010174;27;104766;-66
2022/06/02 08:14:48;;;;;;;;;2.33;2.33;;;;;20.24;46.16;98726.69;5017964;27;102259;-66
2022/06/02 08:17:43;;;;;;;;;1.33;1.33;;;;;20.24;46.07;98731.38;5007515;27;109670;-66
2022/06/02 08:20:33;;;;;;;;;2.67;1.67;;;;;20.24;46.28;98732.19;4995388;28;104350;-66
2022/06/02 08:23:23;;;;;;;;;2.00;1.67;;;;;20.25;46.38;98733.03;5002574;28;102490;-66
2022/06/02 08:25:55;;;;;;;;;2.33;2.33;;;;;20.24;46.24;98740.44;4963954;27;102568;-66
2022/06/02 08:28:24;;;;;;;;;3.00;3.00;;;;;20.25;46.31;98744.00;5012914;27;104240;-66
2022/06/02 08:31:10;;;;;;;;;2.00;1.33;;;;;20.26;46.38;98759.41;5014729;27;107805;-66
2022/06/02 08:33:59;;;;;;;;;3.33;3.33;;;;;20.27;45.96;98759.13;5031580;27;102672;-65
2022/06/02 08:36:29;;;;;;;;;3.33;2.67;;;;;20.26;46.20;98760.22;5018663;27;102513;-66
2022/06/02 08:39:10;;;;;;;;;1.67;1.67;;;;;20.28;46.35;98766.28;5003769;27;109305;-66
2022/06/02 08:42:13;;;;;;;;;3.00;3.00;;;;;20.28;46.21;98763.53;5019750;27;102149;-66
2022/06/02 08:44:55;;;;;;;;;2.00;1.67;;;;;20.29;45.91;98761.63;4957623;28;102415;-66
2022/06/02 08:47:44;;;;;;;;;2.33;2.33;;;;;20.30;46.16;98772.38;5012458;27;102524;-66
2022/06/02 08:50:29;;;;;;;;;2.33;2.33;;;;;20.30;46.19;98772.38;5005649;27;109041;-65
2022/06/02 08:53:45;;;;;;;;;1.67;1.67;;;;;20.32;45.99;98777.59;5033870;27;102320;-66
2022/06/02 08:56:48;;;;;;;;;2.67;2.00;;;;;20.32;46.17;98778.44;5000908;27;102119;-66
2022/06/02 08:59:15;;;;;;;;;1.67;1.67;;;;;20.33;46.07;98777.34;5024649;27;102595;-66
2022/06/02 09:01:57;;;;;;;;;1.67;1.67;;;;;20.34;46.20;98781.75;5017605;27;104040;-66
2022/06/02 09:04:27;;;;;;;;;2.33;1.67;;;;;20.36;46.32;98787.81;4995689;27;102369;-66
2022/06/02 09:07:27;;;;;;;;;3.67;3.00;;;;;20.36;45.81;98787.81;5014071;27;102065;-66
2022/06/02 09:10:35;;;;;;;;;1.67;1.67;;;;;20.38;45.80;98793.88;4987505;27;102223;-66
2022/06/02 09:13:36;;;;;;;;;2.33;2.33;;;;;20.38;46.00;98796.63;4997038;27;108889;-65
2022/06/02 09:16:20;;;;;;;;;2.00;2.00;;;;;20.39;46.22;98801.03;5018232;27;102365;-66
2022/06/02 09:19:33;;;;;;;;;1.67;1.67;;;;;20.39;45.82;98808.44;5012558;27;102248;-66
2022/06/02 09:22:09;;;;;;;;;2.00;2.00;;;;;20.40;45.73;98807.34;5008560;28;102338;-66
2022/06/02 09:24:58;;;;;;;;;1.67;1.67;;;;;20.39;45.82;98809.28;5015031;27;108948;-65
2022/06/02 09:27:37;;;;;;;;;2.33;2.33;;;;;20.39;45.84;98806.53;5002307;27;102370;-65
2022/06/02 09:30:18;;;;;;;;;2.33;1.67;;;;;20.39;46.05;98814.78;5018032;27;102233;-65
2022/06/02 09:36:27;;;;;;;;;2.33;2.33;;;;;20.40;45.95;98816.41;5001787;27;109644;-66
2022/06/02 09:39:10;;;;;;;;;2.33;1.67;;;;;20.40;45.84;98816.41;5007470;27;103195;-66
2022/06/02 09:42:15;;;;;;;;;2.00;2.00;;;;;20.42;45.92;98816.16;5005683;27;105222;-65
2022/06/02 09:45:09;;;;;;;;;2.33;2.33;;;;;20.42;46.09;98817.00;5021258;27;102168;-66
2022/06/02 09:47:49;;;;;;;;;2.33;1.67;;;;;20.42;45.71;98822.50;5006941;27;108993;-65
2022/06/02 09:50:28;;;;;;;;;1.67;1.33;;;;;20.43;45.88;98812.34;5003958;27;102848;-65
2022/06/02 09:53:04;;;;;;;;;1.67;1.67;;;;;20.43;46.14;98818.66;5016381;27;102363;-65
2022/06/02 09:55:43;;;;;;;;;1.33;1.33;;;;;20.44;45.95;98819.50;5026313;27;102230;-66
2022/06/02 09:58:22;;;;;;;;;2.00;2.00;;;;;20.43;45.83;98815.91;5011453;27;108666;-66
2022/06/02 10:01:11;;;;;;;;;2.33;2.00;;;;;20.45;45.80;98821.97;5026911;27;102079;-66
2022/06/02 10:03:53;;;;;;;;;2.00;2.00;;;;;20.43;46.09;98824.16;5023976;27;102618;-66
2022/06/02 10:06:58;;;;;;;;;1.67;1.67;;;;;20.44;45.80;98817.53;5022922;27;102228;-66
2022/06/02 10:10:00;;;;;;;;;1.00;1.00;;;;;20.45;45.96;98816.47;5016881;27;108829;-66
2022/06/02 10:12:54;;;;;;;;;2.00;1.67;;;;;20.47;46.02;98814.31;5017807;27;102348;-66
2022/06/02 10:15:43;;;;;;;;;1.67;1.67;;;;;20.47;46.00;98822.53;5025828;27;102348;-66
2022/06/02 10:18:25;;;;;;;;;2.67;2.67;;;;;20.48;45.79;98821.47;5023258;27;102030;-65
2022/06/02 10:21:32;;;;;;;;;1.67;1.67;;;;;20.48;45.96;98817.88;5013367;27;104072;-65
2022/06/02 10:24:03;;;;;;;;;2.67;2.33;;;;;20.48;46.03;98821.47;4991460;27;104189;-65
2022/06/02 10:26:46;;;;;;;;;1.67;1.67;;;;;20.48;46.11;98815.13;5008558;27;102066;-66
2022/06/02 10:29:56;;;;;;;;;0.67;0.67;;;;;20.49;46.32;98816.78;5010877;27;102453;-65
2022/06/02 10:32:47;;;;;;;;;2.67;1.67;;;;;20.48;45.71;98815.13;5002064;27;109081;-65
2022/06/02 10:35:33;;;;;;;;;1.67;1.67;;;;;20.49;46.13;98814.84;5009802;27;102594;-65
2022/06/02 10:38:05;;;;;;;;;1.00;1.00;;;;;20.50;45.73;98823.94;5021069;27;102712;-66
2022/06/02 10:40:44;;;;;;;;;2.00;2.00;;;;;20.52;46.07;98819.03;5023362;27;102675;-66
2022/06/02 10:43:42;;;;;;;;;2.00;2.00;;;;;20.52;45.77;98818.19;5011866;27;108827;-65
2022/06/02 10:46:44;;;;;;;;;1.33;1.33;;;;;20.53;46.05;98812.44;5015965;27;102342;-65
2022/06/02 10:49:36;;;;;;;;;1.00;1.00;;;;;20.53;45.81;98817.94;5010229;27;102132;-65
2022/06/02 10:52:42;;;;;;;;;2.67;2.67;;;;;20.54;46.02;98819.56;5010975;27;103858;-66
2022/06/02 10:55:30;;;;;;;;;2.00;2.00;;;;;20.54;45.83;98810.50;4992774;27;109072;-65
2022/06/02 10:58:12;;;;;;;;;1.67;1.67;;;;;20.54;46.17;98819.56;5013112;27;102114;-66
2022/06/02 11:00:57;;;;;;;;;0.67;0.67;;;;;20.55;45.69;98820.41;5014124;27;109706;-65
2022/06/02 11:03:38;;;;;;;;;2.00;2.00;;;;;20.56;45.97;98819.31;5011463;27;102173;-66
2022/06/02 11:06:19;;;;;;;;;0.67;0.67;;;;;20.56;45.82;98830.31;5011486;27;108948;-65
2022/06/02 11:09:00;;;;;;;;;2.00;2.00;;;;;20.57;46.08;98826.47;5001114;28;102172;-66
2022/06/02 11:12:06;;;;;;;;;1.00;1.00;;;;;20.57;45.73;98819.06;5021547;27;102305;-66
2022/06/02 11:14:57;;;;;;;;;2.00;2.00;;;;;20.59;45.96;98822.38;5032913;27;102426;-66
2022/06/02 11:17:51;;;;;;;;;1.67;1.67;;;;;20.59;46.02;98825.13;5010321;27;108984;-66
2022/06/02 11:20:40;;;;;;;;;0.67;0.67;;;;;20.60;45.88;98818.53;4996705;27;102236;-66
2022/06/02 11:23:54;;;;;;;;;0.67;0.67;;;;;20.61;45.77;98830.38;5009386;27;101955;-65
2022/06/02 11:27:00;;;;;;;;;1.00;1.00;;;;;20.62;45.58;98832.03;4993434;27;102684;-66
2022/06/02 11:30:04;;;;;;;;;1.67;1.67;;;;;20.62;45.49;98830.13;5008060;27;108981;-66
2022/06/02 11:33:03;;;;;;;;;1.00;1.00;;;;;20.63;45.90;98830.91;5009707;27;102524;-66
2022/06/02 11:35:51;;;;;;;;;1.33;1.33;;;;;20.63;45.54;98831.75;5001625;27;102576;-66
2022/06/02 11:38:38;;;;;;;;;1.67;1.67;;;;;20.65;45.55;98831.50;5010262;27;102227;-66
2022/06/02 11:41:27;;;;;;;;;1.00;1.00;;;;;20.65;45.48;98828.75;5009849;27;109022;-65
2022/06/02 11:44:20;;;;;;;;;1.67;1.67;;;;;20.66;45.87;98833.16;5013286;27;102261;-66
2022/06/02 11:47:28;;;;;;;;;1.67;1.67;;;;;20.66;45.96;98834.00;4996227;27;102539;-66
2022/06/02 11:50:28;;;;;;;;;1.33;1.33;;;;;20.68;45.82;98830.97;5001675;27;102587;-66
2022/06/02 11:53:20;;;;;;;;;1.33;1.33;;;;;20.69;45.93;98832.63;4999651;27;108924;-66
2022/06/02 11:56:05;;;;;;;;;0.67;0.67;;;;;20.69;45.95;98833.47;5009521;27;102136;-65
2022/06/02 11:59:00;;;;;;;;;1.00;1.00;;;;;20.70;45.53;98831.56;5011281;27;102322;-65
2022/06/02 12:01:39;;;;;;;;;2.00;2.00;;;;;20.71;45.82;98830.47;5023314;27;102477;-66
2022/06/02 12:04:37;;;;;;;;;2.00;2.00;;;;;20.72;45.88;98818.38;4979262;27;108943;-64
2022/06/02 12:07:19;;;;;;;;;1.00;0.67;;;;;20.71;45.91;98834.06;5003875;28;102184;-66
2022/06/02 12:10:14;;;;;;;;;2.00;1.00;;;;;20.73;45.89;98822.78;5009625;27;102349;-66
2022/06/02 12:12:54;;;;;;;;;0.67;0.67;;;;;20.74;45.67;98832.69;5007822;27;102385;-66
2022/06/02 12:15:29;;;;;;;;;0.67;0.67;;;;;20.76;45.74;98846.97;4998488;28;104060;-65
2022/06/02 12:18:22;;;;;;;;;2.67;2.33;;;;;20.77;45.90;98834.91;5012437;27;104732;-66
2022/06/02 12:21:08;;;;;;;;;2.00;1.00;;;;;20.77;45.37;98823.91;5024182;27;102294;-65
2022/06/02 12:23:41;;;;;;;;;2.00;1.67;;;;;20.78;45.82;98828.31;5019086;27;102564;-65
2022/06/02 12:26:27;;;;;;;;;2.33;1.67;;;;;20.78;45.88;98831.91;5008645;27;109561;-65
2022/06/02 12:29:06;;;;;;;;;0.67;0.67;;;;;20.80;45.90;98846.19;5003289;27;102437;-66
2022/06/02 12:31:41;;;;;;;;;2.00;1.67;;;;;20.81;45.78;98841.53;5013823;27;103507;-66
2022/06/02 12:34:12;;;;;;;;;1.33;1.33;;;;;20.82;45.46;98843.19;5003761;28;102350;-66
2022/06/02 12:37:10;;;;;;;;;1.00;1.00;;;;;20.82;45.86;98833.03;5007167;27;104197;-65
2022/06/02 12:39:58;;;;;;;;;1.00;1.00;;;;;20.83;45.86;98822.88;5003263;27;102366;-65
2022/06/02 12:43:13;;;;;;;;;2.00;2.00;;;;;20.84;45.87;98824.53;5001668;27;102252;-65
2022/06/02 12:45:53;;;;;;;;;1.33;1.33;;;;;20.86;45.76;98822.34;4995057;27;102206;-65
2022/06/02 12:48:28;;;;;;;;;1.67;1.00;;;;;20.88;45.32;98828.41;5002058;27;104050;-66
2022/06/02 12:51:18;;;;;;;;;1.67;1.67;;;;;20.89;45.68;98832.84;5020531;27;102506;-66
2022/06/02 12:53:54;;;;;;;;;1.33;1.33;;;;;20.89;45.23;98832.84;4972751;27;102594;-66
2022/06/02 12:56:51;;;;;;;;;0.67;0.67;;;;;20.91;45.63;98838.88;5021698;27;102453;-66
2022/06/02 12:59:56;;;;;;;;;1.67;1.67;;;;;20.92;45.29;98835.03;5026332;27;108852;-66
2022/06/02 13:02:45;;;;;;;;;0.67;0.67;;;;;20.93;45.36;98823.78;5015315;27;102301;-66